AAL1958 SBGL-SBGR
Flight info
| Callsign | AAL1958 |
|---|---|
| Flight time | N/A |
| Altitude | 32000 |
| Route | UGRO1A SIDUR ESORU EDMUS EDMUS2A |
| Aircraft | B738/M-VGDW/C |
Departure
| Time | 2026-05-07 23:27 |
|---|---|
| Airport | Rio Galeão – Tom Jobim International Airport (SBGL) |
Arrival
| Time | N/A |
|---|---|
| Airport | São Paulo/Guarulhos–Governor André Franco Montoro International Airport (SBGR) |
| Time | Latitude | Longitude | Altitude | Speed | Heading |
|---|---|---|---|---|---|
| 2026-05-07 23:14 | -22.81108 | -43.25425 | 33 ft | 0 kts | 84° |
| 2026-05-07 23:20 | -22.81105 | -43.25419 | 33 ft | 2 kts | 41° |
| 2026-05-07 23:21 | -22.81094 | -43.25418 | 33 ft | 0 kts | 353° |
| 2026-05-07 23:22 | -22.81092 | -43.25419 | 33 ft | 1 kts | 353° |
| 2026-05-07 23:22 | -22.81018 | -43.25426 | 33 ft | 15 kts | 351° |
| 2026-05-07 23:22 | -22.80932 | -43.25486 | 33 ft | 15 kts | 307° |
| 2026-05-07 23:23 | -22.80876 | -43.25594 | 33 ft | 17 kts | 301° |
| 2026-05-07 23:23 | -22.80785 | -43.25681 | 33 ft | 19 kts | 6° |
| 2026-05-07 23:23 | -22.80655 | -43.25603 | 33 ft | 22 kts | 33° |
| 2026-05-07 23:23 | -22.80513 | -43.25551 | 33 ft | 21 kts | 335° |
| 2026-05-07 23:24 | -22.80407 | -43.25612 | 33 ft | 17 kts | 352° |
| 2026-05-07 23:24 | -22.80342 | -43.25592 | 33 ft | 0 kts | 30° |
| 2026-05-07 23:25 | -22.80339 | -43.25590 | 33 ft | 0 kts | 31° |
| 2026-05-07 23:25 | -22.80335 | -43.25588 | 33 ft | 0 kts | 29° |
| 2026-05-07 23:25 | -22.80332 | -43.25586 | 33 ft | 0 kts | 27° |
| 2026-05-07 23:26 | -22.80330 | -43.25585 | 33 ft | 0 kts | 26° |
| 2026-05-07 23:26 | -22.80327 | -43.25584 | 33 ft | 0 kts | 25° |
| 2026-05-07 23:26 | -22.80254 | -43.25520 | 33 ft | 34 kts | 37° |
| 2026-05-07 23:26 | -22.80045 | -43.25001 | 34 ft | 117 kts | 74° |
| 2026-05-07 23:27 | -22.79380 | -43.22796 | 1119 ft | 188 kts | 66° |
| 2026-05-07 23:27 | -22.78880 | -43.21388 | 1896 ft | 215 kts | 68° |
| 2026-05-07 23:27 | -22.78331 | -43.19740 | 2543 ft | 254 kts | 69° |
| 2026-05-07 23:28 | -22.77768 | -43.17847 | 3692 ft | 269 kts | 73° |
| 2026-05-07 23:28 | -22.77512 | -43.15848 | 4969 ft | 277 kts | 85° |
| 2026-05-07 23:28 | -22.77343 | -43.13818 | 6268 ft | 281 kts | 80° |
| 2026-05-07 23:28 | -22.76934 | -43.11757 | 7552 ft | 283 kts | 70° |
| 2026-05-07 23:29 | -22.75921 | -43.10002 | 8708 ft | 287 kts | 40° |
| 2026-05-07 23:29 | -22.74153 | -43.09099 | 9903 ft | 289 kts | 7° |
| 2026-05-07 23:29 | -22.72158 | -43.09368 | 10760 ft | 303 kts | 337° |
| 2026-05-07 23:29 | -22.70410 | -43.10769 | 11293 ft | 328 kts | 311° |
| 2026-05-07 23:30 | -22.68912 | -43.12660 | 12105 ft | 341 kts | 313° |
| 2026-05-07 23:30 | -22.67188 | -43.14449 | 12982 ft | 349 kts | 318° |
| 2026-05-07 23:30 | -22.65353 | -43.16141 | 13931 ft | 355 kts | 319° |
| 2026-05-07 23:30 | -22.63433 | -43.17862 | 14869 ft | 360 kts | 320° |
| 2026-05-07 23:31 | -22.61512 | -43.19557 | 15790 ft | 364 kts | 320° |
| 2026-05-07 23:31 | -22.59541 | -43.21279 | 16664 ft | 368 kts | 320° |
| 2026-05-07 23:31 | -22.57529 | -43.23028 | 17531 ft | 372 kts | 320° |
| 2026-05-07 23:31 | -22.55658 | -43.24921 | 18308 ft | 376 kts | 308° |
| 2026-05-07 23:32 | -22.54394 | -43.27387 | 18921 ft | 383 kts | 287° |
| 2026-05-07 23:32 | -22.54095 | -43.30252 | 18972 ft | 382 kts | 263° |
| 2026-05-07 23:32 | -22.54698 | -43.33028 | 18987 ft | 380 kts | 253° |
| 2026-05-07 23:32 | -22.55432 | -43.35759 | 18968 ft | 379 kts | 255° |
| 2026-05-07 23:33 | -22.56106 | -43.38480 | 19202 ft | 375 kts | 255° |
| 2026-05-07 23:33 | -22.56769 | -43.41215 | 19709 ft | 373 kts | 256° |
| 2026-05-07 23:33 | -22.57465 | -43.43885 | 20200 ft | 371 kts | 251° |
| 2026-05-07 23:33 | -22.58419 | -43.46445 | 20693 ft | 369 kts | 247° |
| 2026-05-07 23:34 | -22.59431 | -43.48989 | 21193 ft | 366 kts | 248° |
| 2026-05-07 23:34 | -22.60401 | -43.51516 | 21692 ft | 363 kts | 248° |
| 2026-05-07 23:34 | -22.61353 | -43.54028 | 22190 ft | 361 kts | 248° |
| 2026-05-07 23:34 | -22.62300 | -43.56543 | 22693 ft | 358 kts | 248° |
| 2026-05-07 23:35 | -22.63229 | -43.59019 | 23196 ft | 363 kts | 249° |
| 2026-05-07 23:35 | -22.64180 | -43.61565 | 23701 ft | 367 kts | 249° |
| 2026-05-07 23:35 | -22.65137 | -43.64128 | 24198 ft | 364 kts | 249° |
| 2026-05-07 23:35 | -22.66071 | -43.66637 | 24690 ft | 362 kts | 249° |
| 2026-05-07 23:36 | -22.66996 | -43.69128 | 25180 ft | 351 kts | 249° |
| 2026-05-07 23:36 | -22.67891 | -43.71544 | 25676 ft | 345 kts | 249° |
| 2026-05-07 23:36 | -22.68774 | -43.73934 | 26176 ft | 341 kts | 249° |
| 2026-05-07 23:36 | -22.69650 | -43.76307 | 26679 ft | 336 kts | 249° |
| 2026-05-07 23:37 | -22.70509 | -43.78633 | 27177 ft | 332 kts | 249° |
| 2026-05-07 23:37 | -22.71357 | -43.80935 | 27678 ft | 327 kts | 249° |
| 2026-05-07 23:37 | -22.72184 | -43.83179 | 28173 ft | 322 kts | 250° |
| 2026-05-07 23:37 | -22.73009 | -43.85421 | 28675 ft | 316 kts | 250° |
| 2026-05-07 23:38 | -22.73809 | -43.87597 | 29171 ft | 310 kts | 250° |
| 2026-05-07 23:38 | -22.74594 | -43.89731 | 29667 ft | 304 kts | 250° |
| 2026-05-07 23:38 | -22.75368 | -43.91836 | 30166 ft | 298 kts | 250° |
| 2026-05-07 23:38 | -22.76121 | -43.93888 | 30662 ft | 291 kts | 250° |
| 2026-05-07 23:39 | -22.76855 | -43.95890 | 31160 ft | 289 kts | 250° |
| 2026-05-07 23:39 | -22.77603 | -43.97928 | 31665 ft | 291 kts | 250° |
| 2026-05-07 23:39 | -22.78399 | -43.99955 | 31892 ft | 302 kts | 247° |
| 2026-05-07 23:39 | -22.79234 | -44.02116 | 31968 ft | 316 kts | 250° |
| 2026-05-07 23:40 | -22.80034 | -44.04390 | 31981 ft | 330 kts | 250° |
| 2026-05-07 23:40 | -22.80878 | -44.06731 | 31975 ft | 339 kts | 250° |
| 2026-05-07 23:40 | -22.82653 | -44.11542 | 31970 ft | 355 kts | 250° |
| 2026-05-07 23:41 | -22.84507 | -44.16637 | 31965 ft | 369 kts | 250° |
| 2026-05-07 23:41 | -22.86079 | -44.21981 | 31966 ft | 381 kts | 255° |
| 2026-05-07 23:42 | -22.86858 | -44.24777 | 31966 ft | 392 kts | 254° |
| 2026-05-07 23:42 | -22.87681 | -44.27680 | 31969 ft | 407 kts | 254° |
| 2026-05-07 23:42 | -22.88526 | -44.30648 | 31967 ft | 421 kts | 254° |
| 2026-05-07 23:42 | -22.89395 | -44.33692 | 31966 ft | 433 kts | 254° |
| 2026-05-07 23:43 | -22.90305 | -44.36873 | 31966 ft | 445 kts | 254° |
| 2026-05-07 23:43 | -22.91230 | -44.40104 | 31965 ft | 454 kts | 254° |
| 2026-05-07 23:43 | -22.93079 | -44.46557 | 31963 ft | 441 kts | 254° |
| 2026-05-07 23:44 | -22.94918 | -44.53008 | 31994 ft | 454 kts | 254° |
| 2026-05-07 23:44 | -22.96800 | -44.59615 | 32001 ft | 461 kts | 254° |
| 2026-05-07 23:45 | -22.97730 | -44.62879 | 31999 ft | 447 kts | 254° |
| 2026-05-07 23:45 | -22.98635 | -44.66059 | 32017 ft | 441 kts | 255° |
| 2026-05-07 23:45 | -23.00433 | -44.72406 | 32021 ft | 441 kts | 255° |
| 2026-05-07 23:46 | -23.02233 | -44.78769 | 32020 ft | 440 kts | 255° |
| 2026-05-07 23:46 | -23.04020 | -44.85096 | 32020 ft | 438 kts | 255° |
| 2026-05-07 23:47 | -23.05802 | -44.91413 | 31906 ft | 440 kts | 255° |
| 2026-05-07 23:47 | -23.06689 | -44.94554 | 31307 ft | 444 kts | 255° |
| 2026-05-07 23:47 | -23.07589 | -44.97749 | 30679 ft | 440 kts | 255° |
| 2026-05-07 23:48 | -23.08479 | -45.00908 | 30055 ft | 438 kts | 255° |
| 2026-05-07 23:48 | -23.09368 | -45.04070 | 29430 ft | 439 kts | 255° |
| 2026-05-07 23:48 | -23.10260 | -45.07249 | 28806 ft | 442 kts | 255° |
| 2026-05-07 23:48 | -23.11158 | -45.10453 | 28184 ft | 447 kts | 256° |
| 2026-05-07 23:49 | -23.12061 | -45.13675 | 27561 ft | 450 kts | 256° |
| 2026-05-07 23:49 | -23.12963 | -45.16901 | 26941 ft | 453 kts | 256° |
| 2026-05-07 23:49 | -23.13876 | -45.20171 | 26314 ft | 454 kts | 256° |
| 2026-05-07 23:49 | -23.14797 | -45.23471 | 25684 ft | 455 kts | 256° |